MEETING CARATESE - 9░ MIGLIO `MEMORIAL GINO RIVA`
RIUNIONE DI INTERESSE NAZIONALE CADETTI E ASSOLUTI - TROFEO ` MEMORIAL SIMONE CAGLIO`
Organizzazione: A.S.D. DAINI CARATE BRIANZA MI095 - CARATE BRIANZA
1 Miglio UOMINI - RISULTATI05/06 - 20:34
SERIE - RISULTATI
 HOME  Liste x Gara    Liste x Team    Reports    Turni Iniziali    Ris. x Gara    Ris. x Team   
Serie 1CARATE BRIANZA - 05 Giugno 2021 Ora Inizio: 18:19 
Clas.Pett.AtletaAnnoCat.SocietÓPrestazionePunti
11140TREROTOLA Antonio1968SM50MI074 ATL. U.S. NERVIANESE 19196:42.03 
21123MARENGONI Gianfranco1940SM80MI265 ROAD RUNNERS CLUB MILANO7:18.87 
34CERATO Gianni1969SM50MI308 ATHLETIC TEAM7:51.58 
444GERBAZ Giampaolo1944SM75MI265 ROAD RUNNERS CLUB MILANO7:54.93 
599BACILIERI Luciano1952SM65MI308 ATHLETIC TEAM8:22.52 
637IACOBONI Oscar1937SM80MI352 EUROATLETICA 20028:46.13 
71141VECCHIO Giovanni1953SM65MI308 ATHLETIC TEAM8:46.85 
843TASSELLO Girolamo1943SM75MI700 GRUPPO PODISTICO MELZO A.S.D.9:31.16 
9981CANNILLO Renato Massimo1959SM60MI552 G.S. MONTESTELLA9:52.90 
10965BRAMBILLA Augusto Mario1945SM75PV414 U.S. SCALO VOGHERA11:17.14 
 12BORONI Andrea1983SM35BS303 OLYMPIA ATHLETIC TEAMDNS 
Serie 2CARATE BRIANZA - 05 Giugno 2021 Ora Inizio: 18:38 
Clas.Pett.AtletaAnnoCat.SocietÓPrestazionePunti
111DIECI Lorenzo2003JMPC088 POL. AMICIZIA CAORSO6:13.83 
267MURA Gianluca1974SM45MI271 LA MICHETTA6:16.37 
310FERRARI Nicola1954SM65CH175 ASD MISTERCAMP CASTELFRENTANO6:28.55 
441DI LELLO Alfredo1962SM55MI404 G.S. ZELOFORAMAGNO6:34.74 
52MATTEUCCI Roberto1964SM55MI934 POL.UNICREDIT CIRCOLO MILANO6:40.44 
634LEVATI Cesare1959SM60MI308 ATHLETIC TEAM6:41.81 
764DE GIACOMO Giovanni1964SM55MI695 VERDE PISELLO GROUP MILANO6:43.23 
859BENEDUCE Tiziano Celest1959SM60MI552 G.S. MONTESTELLA6:44.23 
91LOLLINI Rodolfo1957SM60MI552 G.S. MONTESTELLA6:44.26 
1048RENCUROSI Rodolfo1948SM70MI419 ATL. VIGNATE6:48.30 
1127D'ANGELO Salvatore1954SM65MI308 ATHLETIC TEAM6:50.77 
Serie 3CARATE BRIANZA - 05 Giugno 2021 Ora Inizio: 18:49 
Clas.Pett.AtletaAnnoCat.SocietÓPrestazionePunti
174BASILE Massimiliano1974SM45MI798 MILANO ATLETICA5:55.41 
224GASPARETTO Decio1979SM40MI296 ATL. LAMBRO MILANO5:56.74 
3970BUITRAGO Santiago2004AMMI419 ATL. VIGNATE5:57.46 
41144TOTIS Giuliano1978SM40BG928 PODISTI DUE CASTELLI ASD5:59.56 
540CIALFI Alessandro1954SM65MI271 LA MICHETTA6:01.00 
660ZUCCA Paolo1960SM60AL028 ACQUIRUNNERS6:04.72 
714MILANESI Francesco1968SM50MI071 B. R.C. CASTIGLIONE D'ADDA6:06.03 
81116GALMARINI Giovanni1953SM65VA731 ATL. GALLARATESE6:10.58 
954LAZZARONI Emilio1954SM65MI189 ATL. AMBROSIANA6:14.02 
 1150HABBOUBI Anwar2001PMMI077 CUS PRO PATRIA MILANODNS 
 962BONINI Carlo1972SM45MI504 A.S.D. MARCIACARATESIDNS 
 70CASANA Massimo1970SM50BS303 OLYMPIA ATHLETIC TEAMDNS 
Serie 4CARATE BRIANZA - 05 Giugno 2021 Ora Inizio: 18:58 
Clas.Pett.AtletaAnnoCat.SocietÓPrestazionePunti
11124MAURI Andrea1981SM40CO912 MULTISPORT CANTU' 20125:15.85 
21149MAZZA Nicola1990SMBG134 ATL. LA TORRE5:28.11 
3964BORGONOVO Roberto1967SM50MI095 DAINI CARATE BRIANZA5:35.55 
41138TALAMAZZINI Franco1967SM50MI352 EUROATLETICA 20025:39.51 
571MORARA Massimiliano1980SM40MI695 VERDE PISELLO GROUP MILANO5:42.82 
619GUASTAMACCHIA Giuseppe1958SM60MI296 ATL. LAMBRO MILANO5:53.35 
755ZOIA Federico1966SM55MI360 ATL. 99 VITTUONE5:53.78 
8992ELLI Michael1986SM35MI504 A.S.D. MARCIACARATESI5:55.51 
9988DI NUNZIO Roberto1973SM45MI095 DAINI CARATE BRIANZA5:59.95 
1032BOCCHIO Mario1968SM50AL011 G.P. CARTOTECNICA PIEMONTESE A6:00.68 
1142IAZZARELLI Matteo Giova1967SM50MI265 ROAD RUNNERS CLUB MILANO6:02.44 
 61BOMBELLI Nini Santo naz1961SM60MI609 ATLETICRALS2-TEATRO ALLA SCALADNS 
Serie 5CARATE BRIANZA - 05 Giugno 2021 Ora Inizio: 19:08 
Clas.Pett.AtletaAnnoCat.SocietÓPrestazionePunti
135FACCIOLO Valerio1968SM50MI352 EUROATLETICA 20025:19.99 
2967BRAMBILLA Dario2001PMMI032 POL. TEAM BRIANZA LISSONE5:32.53 
31147FAUSTINI Silvano1962SM55BS538 ATL. GAVARDO '90 LIB.5:38.01 
446PAPA Gabriele2003JMPC088 POL. AMICIZIA CAORSO5:42.46 
51132PAOLUCCI Mauro1976SM45MI074 ATL. U.S. NERVIANESE 19195:45.20 
61131PALMIERI Martino1955SM65MI352 EUROATLETICA 20025:46.57 
71142VENA Marcello1974SM45MI080 ATL. RICCARDI MILANO 19465:47.07 
81121LANZONI Marco1969SM50MI062 ATL. VIRTUS SENAGO5:47.55 
95RUFFINI William1974SM45MI541 G.P. CODOGNO 825:48.31 
1033ROCCA Nicola1968SM50BS303 OLYMPIA ATHLETIC TEAM5:55.93 
1115MANZINI Emilio1966SM55PC385 ASD PLACENTIA6:17.69 
 69MARCHESE Cristiano1971SM50MI265 ROAD RUNNERS CLUB MILANODNS 
Serie 6CARATE BRIANZA - 05 Giugno 2021 Ora Inizio: 19:17 
Clas.Pett.AtletaAnnoCat.SocietÓPrestazionePunti
182MENTO Ronal1982SM35MI759 LA FENICE5:01.40 
21148VOLONTE' Alessandro1968SM50VA119 ATL. O.S.A. SARONNO LIB.5:12.45 
365GAMBERALE Giuseppe1966SM55MI095 DAINI CARATE BRIANZA5:14.67 
41125MAURI Gabriele2003JMMI032 POL. TEAM BRIANZA LISSONE5:14.86 
51135ROTA Massimiliano1972SM45CO208 ATL. LECCO-COLOMBO COSTRUZ.5:21.83 
623BARLETTA Francesco1961SM60MI352 EUROATLETICA 20025:22.98 
7987COSTA Leonardo1977SM40MI095 DAINI CARATE BRIANZA5:24.65 
8999FLOREZ GIL Daniel Esteb2005AMMI032 POL. TEAM BRIANZA LISSONE5:27.00 
9998FERRARIO Gabriele2004AMMI095 DAINI CARATE BRIANZA5:28.29 
10993FASCIA Adriano1971SM50MI265 ROAD RUNNERS CLUB MILANO5:29.55 
1157GATTI Paolo1957SM60MI095 DAINI CARATE BRIANZA5:30.89 
12977CAMMAROTO Mattia2004AMMI307 C.B.A. CINISELLO BALSAMO ATL.5:39.09 
Serie 7CARATE BRIANZA - 05 Giugno 2021 Ora Inizio: 19:25 
Clas.Pett.AtletaAnnoCat.SocietÓPrestazionePunti
1985CITTERIO Giorgio2004AMMI214 ATL. VIS NOVA GIUSSANO5:04.20 
21130OPRANDI Oscar1978SM40BG606 FO' DI PE5:05.31 
31133PIERMATTEO Gennaro1969SM50MI095 DAINI CARATE BRIANZA5:07.01 
41127MENEGUZZO Enzo1966SM55VA168 AMATORI ATL. CASORATE S.5:09.06 
528ROGGEBAND Jonathan1991SMMI308 ATHLETIC TEAM5:09.10 
639MERISIO Francesco1967SM50MI308 ATHLETIC TEAM5:10.00 
7983CIMATO Massimo1963SM55MI265 ROAD RUNNERS CLUB MILANO5:11.34 
831BONEMAZZI Lorenzo1979SM40PV619 TEMPO IMPEGNATO-ATL. TIDIESSE5:13.99 
985LUCCHINI Michele1985SM35MI308 ATHLETIC TEAM5:15.50 
101128MILESI Federico2000PMBG795 BERGAMO STARS ATLETICA5:16.78 
11991DI RAGO Federico2002JMMI095 DAINI CARATE BRIANZA5:25.84 
 1126MELILLO Simon2004AMMI311 AZZURRA GARBAGNATE M.SEDNS 
Serie 8CARATE BRIANZA - 05 Giugno 2021 Ora Inizio: 19:34 
Clas.Pett.AtletaAnnoCat.SocietÓPrestazionePunti
11129NELLI Leonardo2003JMBS786 BRIXIA ATLETICA 2014 SSD SRL4:49.00 
21134RONCAREGGI Stefano2004AMCO017 ATL. TRIANGOLO LARIANO4:50.28 
31143VERGOTTINI Nicolo'2005AMCO824 UNIONE SPORTIVA DERVIESE A.S.D4:50.98 
4979CANCLINI Francesco1996SMMI098 POL. BESANESE4:55.04 
526ROSSETTI Fabio1970SM50BS786 BRIXIA ATLETICA 2014 SSD SRL4:57.52 
6961BESSI Filippo2005AMCO017 ATL. TRIANGOLO LARIANO4:58.03 
71139TOMASONI Gianmarco1999PMMI218 N.ATL. FANFULLA LODIGIANA4:59.02 
8972BUZZELLA Mario1975SM45CO824 UNIONE SPORTIVA DERVIESE A.S.D4:59.38 
986RADAELLI Davide1986SM35MI645 RUNNERS DESIO5:02.91 
 1119GLIGORA Andrea2005AMCO023 ATL. ROVELLASCADNS 
 989DI RAGO Stefano2000PMMI095 DAINI CARATE BRIANZADNS 
 986COLOMBO Lorenzo2004AMMI095 DAINI CARATE BRIANZADNS 
Serie 9CARATE BRIANZA - 05 Giugno 2021 Ora Inizio: 19:42 
Clas.Pett.AtletaAnnoCat.SocietÓPrestazionePunti
1960BEDIN Carlo Luciano2002JMMI774 TEAM-A LOMBARDIA4:31.44 
21118GHILLIONI Riccardo1993SMCO017 ATL. TRIANGOLO LARIANO4:31.95 
3959BARONCHELLI Nathan1995SMMI095 DAINI CARATE BRIANZA4:32.62 
41117GALVANI Martino2001PMMI214 ATL. VIS NOVA GIUSSANO4:33.30 
51146VALLET Jean Pierre2002JMAO001 ATLETICA COGNE AOSTA4:34.88 
61145TREVIA Andrea2001PMVA123 CUS INSUBRIA VARESE COMO4:35.62 
71137SAN PIETRO Alberto2002JMMI077 CUS PRO PATRIA MILANO4:37.86 
8958BALDUCCI Lorenzo1997SMMI218 N.ATL. FANFULLA LODIGIANA4:40.50 
91136SALA Massimiliano1998SMMI218 N.ATL. FANFULLA LODIGIANA4:43.19 
101122MAESTRELLI Riccardo1991SMMI670 DK RUNNERS MILANO4:45.06 
 1120GRIFA Mattia2001PMMI311 AZZURRA GARBAGNATE M.SEDNS 
 968BRUGNOLI Andrea1998SMMI311 AZZURRA GARBAGNATE M.SEDNS 
RIEPILOGOCARATE BRIANZA 
Clas.Pett.AtletaAnnoCat.SocietÓPrestazionePunti
1960BEDIN Carlo Luciano2002JMMI774 TEAM-A LOMBARDIA4:31.44 
21118GHILLIONI Riccardo1993SMCO017 ATL. TRIANGOLO LARIANO4:31.95 
3959BARONCHELLI Nathan1995SMMI095 DAINI CARATE BRIANZA4:32.62 
41117GALVANI Martino2001PMMI214 ATL. VIS NOVA GIUSSANO4:33.30 
51146VALLET Jean Pierre2002JMAO001 ATLETICA COGNE AOSTA4:34.88 
61145TREVIA Andrea2001PMVA123 CUS INSUBRIA VARESE COMO4:35.62 
71137SAN PIETRO Alberto2002JMMI077 CUS PRO PATRIA MILANO4:37.86 
8958BALDUCCI Lorenzo1997SMMI218 N.ATL. FANFULLA LODIGIANA4:40.50 
91136SALA Massimiliano1998SMMI218 N.ATL. FANFULLA LODIGIANA4:43.19 
101122MAESTRELLI Riccardo1991SMMI670 DK RUNNERS MILANO4:45.06 
111129NELLI Leonardo2003JMBS786 BRIXIA ATLETICA 2014 SSD SRL4:49.00 
121134RONCAREGGI Stefano2004AMCO017 ATL. TRIANGOLO LARIANO4:50.28 
131143VERGOTTINI Nicolo'2005AMCO824 UNIONE SPORTIVA DERVIESE A.S.D4:50.98 
14979CANCLINI Francesco1996SMMI098 POL. BESANESE4:55.04 
1526ROSSETTI Fabio1970SM50BS786 BRIXIA ATLETICA 2014 SSD SRL4:57.52 
16961BESSI Filippo2005AMCO017 ATL. TRIANGOLO LARIANO4:58.03 
171139TOMASONI Gianmarco1999PMMI218 N.ATL. FANFULLA LODIGIANA4:59.02 
18972BUZZELLA Mario1975SM45CO824 UNIONE SPORTIVA DERVIESE A.S.D4:59.38 
1982MENTO Ronal1982SM35MI759 LA FENICE5:01.40 
2086RADAELLI Davide1986SM35MI645 RUNNERS DESIO5:02.91 
21985CITTERIO Giorgio2004AMMI214 ATL. VIS NOVA GIUSSANO5:04.20 
221130OPRANDI Oscar1978SM40BG606 FO' DI PE5:05.31 
231133PIERMATTEO Gennaro1969SM50MI095 DAINI CARATE BRIANZA5:07.01 
241127MENEGUZZO Enzo1966SM55VA168 AMATORI ATL. CASORATE S.5:09.06 
2528ROGGEBAND Jonathan1991SMMI308 ATHLETIC TEAM5:09.10 
2639MERISIO Francesco1967SM50MI308 ATHLETIC TEAM5:10.00 
27983CIMATO Massimo1963SM55MI265 ROAD RUNNERS CLUB MILANO5:11.34 
281148VOLONTE' Alessandro1968SM50VA119 ATL. O.S.A. SARONNO LIB.5:12.45 
2931BONEMAZZI Lorenzo1979SM40PV619 TEMPO IMPEGNATO-ATL. TIDIESSE5:13.99 
3065GAMBERALE Giuseppe1966SM55MI095 DAINI CARATE BRIANZA5:14.67 
311125MAURI Gabriele2003JMMI032 POL. TEAM BRIANZA LISSONE5:14.86 
3285LUCCHINI Michele1985SM35MI308 ATHLETIC TEAM5:15.50 
331124MAURI Andrea1981SM40CO912 MULTISPORT CANTU' 20125:15.85 
341128MILESI Federico2000PMBG795 BERGAMO STARS ATLETICA5:16.78 
3535FACCIOLO Valerio1968SM50MI352 EUROATLETICA 20025:19.99 
361135ROTA Massimiliano1972SM45CO208 ATL. LECCO-COLOMBO COSTRUZ.5:21.83 
3723BARLETTA Francesco1961SM60MI352 EUROATLETICA 20025:22.98 
38987COSTA Leonardo1977SM40MI095 DAINI CARATE BRIANZA5:24.65 
39991DI RAGO Federico2002JMMI095 DAINI CARATE BRIANZA5:25.84 
40999FLOREZ GIL Daniel Esteb2005AMMI032 POL. TEAM BRIANZA LISSONE5:27.00 
411149MAZZA Nicola1990SMBG134 ATL. LA TORRE5:28.11 
42998FERRARIO Gabriele2004AMMI095 DAINI CARATE BRIANZA5:28.29 
43993FASCIA Adriano1971SM50MI265 ROAD RUNNERS CLUB MILANO5:29.55 
4457GATTI Paolo1957SM60MI095 DAINI CARATE BRIANZA5:30.89 
45967BRAMBILLA Dario2001PMMI032 POL. TEAM BRIANZA LISSONE5:32.53 
46964BORGONOVO Roberto1967SM50MI095 DAINI CARATE BRIANZA5:35.55 
471147FAUSTINI Silvano1962SM55BS538 ATL. GAVARDO '90 LIB.5:38.01 
48977CAMMAROTO Mattia2004AMMI307 C.B.A. CINISELLO BALSAMO ATL.5:39.09 
491138TALAMAZZINI Franco1967SM50MI352 EUROATLETICA 20025:39.51 
5046PAPA Gabriele2003JMPC088 POL. AMICIZIA CAORSO5:42.46 
5171MORARA Massimiliano1980SM40MI695 VERDE PISELLO GROUP MILANO5:42.82 
521132PAOLUCCI Mauro1976SM45MI074 ATL. U.S. NERVIANESE 19195:45.20 
531131PALMIERI Martino1955SM65MI352 EUROATLETICA 20025:46.57 
541142VENA Marcello1974SM45MI080 ATL. RICCARDI MILANO 19465:47.07 
551121LANZONI Marco1969SM50MI062 ATL. VIRTUS SENAGO5:47.55 
565RUFFINI William1974SM45MI541 G.P. CODOGNO 825:48.31 
5719GUASTAMACCHIA Giuseppe1958SM60MI296 ATL. LAMBRO MILANO5:53.35 
5855ZOIA Federico1966SM55MI360 ATL. 99 VITTUONE5:53.78 
5974BASILE Massimiliano1974SM45MI798 MILANO ATLETICA5:55.41 
60992ELLI Michael1986SM35MI504 A.S.D. MARCIACARATESI5:55.51 
6133ROCCA Nicola1968SM50BS303 OLYMPIA ATHLETIC TEAM5:55.93 
6224GASPARETTO Decio1979SM40MI296 ATL. LAMBRO MILANO5:56.74 
63970BUITRAGO Santiago2004AMMI419 ATL. VIGNATE5:57.46 
641144TOTIS Giuliano1978SM40BG928 PODISTI DUE CASTELLI ASD5:59.56 
65988DI NUNZIO Roberto1973SM45MI095 DAINI CARATE BRIANZA5:59.95 
6632BOCCHIO Mario1968SM50AL011 G.P. CARTOTECNICA PIEMONTESE A6:00.68 
6740CIALFI Alessandro1954SM65MI271 LA MICHETTA6:01.00 
6842IAZZARELLI Matteo Giova1967SM50MI265 ROAD RUNNERS CLUB MILANO6:02.44 
6960ZUCCA Paolo1960SM60AL028 ACQUIRUNNERS6:04.72 
7014MILANESI Francesco1968SM50MI071 B. R.C. CASTIGLIONE D'ADDA6:06.03 
711116GALMARINI Giovanni1953SM65VA731 ATL. GALLARATESE6:10.58 
7211DIECI Lorenzo2003JMPC088 POL. AMICIZIA CAORSO6:13.83 
7354LAZZARONI Emilio1954SM65MI189 ATL. AMBROSIANA6:14.02 
7467MURA Gianluca1974SM45MI271 LA MICHETTA6:16.37 
7515MANZINI Emilio1966SM55PC385 ASD PLACENTIA6:17.69 
7610FERRARI Nicola1954SM65CH175 ASD MISTERCAMP CASTELFRENTANO6:28.55 
7741DI LELLO Alfredo1962SM55MI404 G.S. ZELOFORAMAGNO6:34.74 
782MATTEUCCI Roberto1964SM55MI934 POL.UNICREDIT CIRCOLO MILANO6:40.44 
7934LEVATI Cesare1959SM60MI308 ATHLETIC TEAM6:41.81 
801140TREROTOLA Antonio1968SM50MI074 ATL. U.S. NERVIANESE 19196:42.03 
8164DE GIACOMO Giovanni1964SM55MI695 VERDE PISELLO GROUP MILANO6:43.23 
8259BENEDUCE Tiziano Celest1959SM60MI552 G.S. MONTESTELLA6:44.23 
831LOLLINI Rodolfo1957SM60MI552 G.S. MONTESTELLA6:44.26 
8448RENCUROSI Rodolfo1948SM70MI419 ATL. VIGNATE6:48.30 
8527D'ANGELO Salvatore1954SM65MI308 ATHLETIC TEAM6:50.77 
861123MARENGONI Gianfranco1940SM80MI265 ROAD RUNNERS CLUB MILANO7:18.87 
874CERATO Gianni1969SM50MI308 ATHLETIC TEAM7:51.58 
8844GERBAZ Giampaolo1944SM75MI265 ROAD RUNNERS CLUB MILANO7:54.93 
8999BACILIERI Luciano1952SM65MI308 ATHLETIC TEAM8:22.52 
9037IACOBONI Oscar1937SM80MI352 EUROATLETICA 20028:46.13 
911141VECCHIO Giovanni1953SM65MI308 ATHLETIC TEAM8:46.85 
9243TASSELLO Girolamo1943SM75MI700 GRUPPO PODISTICO MELZO A.S.D.9:31.16 
93981CANNILLO Renato Massimo1959SM60MI552 G.S. MONTESTELLA9:52.90 
94965BRAMBILLA Augusto Mario1945SM75PV414 U.S. SCALO VOGHERA11:17.14 
 989DI RAGO Stefano2000PMMI095 DAINI CARATE BRIANZADNS 
 962BONINI Carlo1972SM45MI504 A.S.D. MARCIACARATESIDNS 
 1119GLIGORA Andrea2005AMCO023 ATL. ROVELLASCADNS 
 12BORONI Andrea1983SM35BS303 OLYMPIA ATHLETIC TEAMDNS 
 986COLOMBO Lorenzo2004AMMI095 DAINI CARATE BRIANZADNS 
 1150HABBOUBI Anwar2001PMMI077 CUS PRO PATRIA MILANODNS 
 968BRUGNOLI Andrea1998SMMI311 AZZURRA GARBAGNATE M.SEDNS 
 1126MELILLO Simon2004AMMI311 AZZURRA GARBAGNATE M.SEDNS 
 61BOMBELLI Nini Santo naz1961SM60MI609 ATLETICRALS2-TEATRO ALLA SCALADNS 
 1120GRIFA Mattia2001PMMI311 AZZURRA GARBAGNATE M.SEDNS 
 69MARCHESE Cristiano1971SM50MI265 ROAD RUNNERS CLUB MILANODNS 
 70CASANA Massimo1970SM50BS303 OLYMPIA ATHLETIC TEAMDNS 
SIGMA: Sistema di Gestione MAnifestazioni di Atletica Leggera - ProprietÓ: FIDAL - Realizzazione: AM-Linkweb